Time;durP1;ratioP1;P1;durP2;ratioP2;P2;SDS_P1;SDS_P2;PMS_P1;PMS_P2;Temp;Humidity;BMP_temperature;BMP_pressure;BME280_temperature;BME280_humidity;BME280_pressure;Samples;Min_cycle;Max_cycle;Signal;HPM_P1;HPM_P2
2022/08/30 00:02:55;;;;;;;5.77;4.20;;;;;;;;;;5053688;28;20176;-75
2022/08/30 00:05:21;;;;;;;5.43;4.30;;;;;;;;;;5052010;28;20175;-75
2022/08/30 00:07:46;;;;;;;4.87;4.47;;;;;;;;;;5051727;28;20542;-75
2022/08/30 00:10:11;;;;;;;4.53;4.10;;;;;;;;;;5050955;28;20186;-75
2022/08/30 00:12:37;;;;;;;4.70;4.13;;;;;;;;;;5038694;28;20175;-75
2022/08/30 00:15:03;;;;;;;4.97;4.57;;;;;;;;;;5033328;28;20182;-75
2022/08/30 00:17:29;;;;;;;5.07;4.00;;;;;;;;;;5032951;28;20233;-75
2022/08/30 00:19:54;;;;;;;6.13;4.23;;;;;;;;;;5042413;28;20172;-75
2022/08/30 00:22:20;;;;;;;5.63;4.47;;;;;;;;;;5040008;28;20202;-75
2022/08/30 00:24:45;;;;;;;6.97;4.70;;;;;;;;;;5265297;23;20247;-77
2022/08/30 00:27:10;;;;;;;5.00;4.27;;;;;;;;;;5039443;28;20188;-77
2022/08/30 00:29:35;;;;;;;5.33;4.80;;;;;;;;;;5032158;28;20180;-77
2022/08/30 00:32:01;;;;;;;5.50;5.00;;;;;;;;;;5032971;28;20465;-77
2022/08/30 00:34:31;;;;;;;8.23;4.47;;;;;;;;;;5023764;28;20282;-77
2022/08/30 00:36:56;;;;;;;6.20;4.37;;;;;;;;;;5031984;28;20275;-77
2022/08/30 00:39:21;;;;;;;5.23;4.17;;;;;;;;;;5031744;28;20262;-77
2022/08/30 00:41:47;;;;;;;7.33;4.73;;;;;;;;;;5031374;28;20180;-77
2022/08/30 00:44:12;;;;;;;5.53;4.40;;;;;;;;;;5041844;28;20186;-77
2022/08/30 00:46:37;;;;;;;5.07;4.57;;;;;;;;;;5017367;28;20185;-77
2022/08/30 00:49:05;;;;;;;5.40;4.90;;;;;;;;;;5024556;28;20166;-77
2022/08/30 00:51:32;;;;;;;5.70;5.00;;;;;;;;;;5033034;28;20190;-77
2022/08/30 00:53:58;;;;;;;5.90;4.97;;;;;;;;;;5031448;28;20243;-77
2022/08/30 00:56:24;;;;;;;6.30;4.83;;;;;;;;;;5023592;28;20165;-77
2022/08/30 00:58:51;;;;;;;5.33;4.67;;;;;;;;;;5031892;28;20214;-77
2022/08/30 01:01:17;;;;;;;8.10;4.57;;;;;;;;;;5027966;28;20278;-77
2022/08/30 01:03:42;;;;;;;6.80;5.00;;;;;;;;;;5011830;28;20191;-77
2022/08/30 01:06:08;;;;;;;6.60;4.53;;;;;;;;;;5012878;28;20175;-77
2022/08/30 01:08:34;;;;;;;5.73;4.17;;;;;;;;;;5011267;28;20168;-77
2022/08/30 01:11:00;;;;;;;5.60;4.87;;;;;;;;;;5011460;28;20175;-77
2022/08/30 01:13:25;;;;;;;6.00;4.57;;;;;;;;;;5012688;28;20167;-77
2022/08/30 01:15:52;;;;;;;5.90;4.70;;;;;;;;;;5011696;28;20168;-77
2022/08/30 01:18:17;;;;;;;6.07;4.70;;;;;;;;;;5011683;28;20243;-77
2022/08/30 01:20:49;;;;;;;6.73;4.50;;;;;;;;;;5029095;28;20195;-77
2022/08/30 01:23:15;;;;;;;6.10;4.87;;;;;;;;;;5032145;28;20170;-77
2022/08/30 01:25:42;;;;;;;6.70;5.20;;;;;;;;;;5047368;28;20226;-77
2022/08/30 01:28:09;;;;;;;5.67;4.83;;;;;;;;;;5052339;28;20169;-77
2022/08/30 01:30:37;;;;;;;6.83;4.60;;;;;;;;;;5034467;28;20181;-77
2022/08/30 01:33:04;;;;;;;6.83;5.03;;;;;;;;;;5051130;28;20177;-77
2022/08/30 01:35:36;;;;;;;5.80;4.90;;;;;;;;;;5026079;28;20285;-77
2022/08/30 01:38:02;;;;;;;6.17;4.90;;;;;;;;;;5051608;28;20200;-77
2022/08/30 01:40:27;;;;;;;5.50;5.00;;;;;;;;;;5052297;28;20165;-77
2022/08/30 01:42:52;;;;;;;5.67;4.93;;;;;;;;;;5043586;28;20172;-77
2022/08/30 01:45:17;;;;;;;7.87;5.57;;;;;;;;;;5052036;28;20173;-77
2022/08/30 01:47:42;;;;;;;6.87;5.13;;;;;;;;;;5034061;28;20172;-77
2022/08/30 01:50:08;;;;;;;5.73;5.13;;;;;;;;;;5034028;28;20181;-77
2022/08/30 01:52:34;;;;;;;5.73;5.10;;;;;;;;;;5033027;28;20193;-77
2022/08/30 01:54:59;;;;;;;6.37;5.77;;;;;;;;;;5017924;28;20174;-77
2022/08/30 01:57:25;;;;;;;6.27;4.97;;;;;;;;;;5050663;28;20204;-77
2022/08/30 01:59:51;;;;;;;5.07;4.57;;;;;;;;;;5033749;28;20172;-77
2022/08/30 02:02:18;;;;;;;6.10;5.50;;;;;;;;;;5033693;28;20170;-77
2022/08/30 02:04:44;;;;;;;6.00;4.80;;;;;;;;;;5033761;28;20172;-77
2022/08/30 02:07:09;;;;;;;8.93;5.87;;;;;;;;;;5033460;28;20188;-77
2022/08/30 02:09:36;;;;;;;8.77;6.00;;;;;;;;;;5050418;28;20265;-77
2022/08/30 02:12:01;;;;;;;8.70;5.70;;;;;;;;;;5025696;28;20184;-77
2022/08/30 02:14:27;;;;;;;6.70;5.27;;;;;;;;;;5032764;28;20182;-77
2022/08/30 02:16:52;;;;;;;5.50;5.00;;;;;;;;;;5033463;28;20207;-77
2022/08/30 02:19:17;;;;;;;6.30;5.70;;;;;;;;;;5028194;28;20194;-77
2022/08/30 02:21:43;;;;;;;6.00;5.50;;;;;;;;;;5036709;28;20169;-77
2022/08/30 02:24:08;;;;;;;6.40;5.03;;;;;;;;;;5032928;28;20698;-77
2022/08/30 02:26:35;;;;;;;5.17;4.67;;;;;;;;;;5032661;28;20176;-77
2022/08/30 02:29:01;;;;;;;6.70;5.00;;;;;;;;;;5033134;28;20191;-77
2022/08/30 02:31:26;;;;;;;7.17;5.63;;;;;;;;;;5033169;28;20173;-77
2022/08/30 02:33:51;;;;;;;6.03;5.53;;;;;;;;;;5032552;28;20195;-77
2022/08/30 02:36:17;;;;;;;7.30;6.07;;;;;;;;;;5032574;28;20177;-77
2022/08/30 02:38:45;;;;;;;5.87;5.23;;;;;;;;;;5032530;28;20201;-77
2022/08/30 02:41:10;;;;;;;5.77;4.70;;;;;;;;;;5048465;28;20173;-77
2022/08/30 02:43:36;;;;;;;6.60;4.77;;;;;;;;;;5025280;28;20181;-77
2022/08/30 02:46:01;;;;;;;6.13;5.57;;;;;;;;;;5013355;28;20177;-77
2022/08/30 02:48:26;;;;;;;7.80;5.73;;;;;;;;;;5032116;28;20524;-77
2022/08/30 02:50:52;;;;;;;8.33;6.00;;;;;;;;;;5032647;28;20241;-77
2022/08/30 02:53:17;;;;;;;7.73;6.27;;;;;;;;;;5031018;28;20404;-77
2022/08/30 02:55:43;;;;;;;6.97;6.30;;;;;;;;;;5037388;28;20248;-77
2022/08/30 02:58:09;;;;;;;6.90;6.23;;;;;;;;;;5013112;28;20297;-77
2022/08/30 03:00:34;;;;;;;7.67;5.97;;;;;;;;;;5013482;28;20270;-77
2022/08/30 03:03:02;;;;;;;8.57;7.03;;;;;;;;;;5029768;28;20278;-77
2022/08/30 03:05:28;;;;;;;8.07;5.80;;;;;;;;;;5012935;28;20173;-77
2022/08/30 03:07:53;;;;;;;7.93;6.30;;;;;;;;;;5030368;28;20161;-77
2022/08/30 03:10:18;;;;;;;6.97;6.20;;;;;;;;;;5013140;28;20178;-77
2022/08/30 03:12:44;;;;;;;7.27;5.97;;;;;;;;;;5012804;28;20185;-77
2022/08/30 03:15:11;;;;;;;8.63;6.53;;;;;;;;;;5012815;28;20176;-77
2022/08/30 03:17:37;;;;;;;7.23;6.50;;;;;;;;;;5013484;28;20273;-77
2022/08/30 03:20:02;;;;;;;7.23;6.03;;;;;;;;;;5024200;28;20175;-77
2022/08/30 03:22:28;;;;;;;8.30;7.60;;;;;;;;;;5032015;28;20171;-77
2022/08/30 03:24:56;;;;;;;6.77;6.17;;;;;;;;;;5029115;28;20230;-77
2022/08/30 03:27:22;;;;;;;7.23;6.13;;;;;;;;;;5029361;28;20184;-77
2022/08/30 03:29:47;;;;;;;7.73;6.97;;;;;;;;;;5045912;28;20174;-77
2022/08/30 03:32:12;;;;;;;7.87;6.80;;;;;;;;;;5043696;28;20178;-77
2022/08/30 03:34:38;;;;;;;9.43;7.47;;;;;;;;;;5022354;28;20190;-77
2022/08/30 03:37:03;;;;;;;7.63;6.93;;;;;;;;;;5014050;28;20201;-77
2022/08/30 03:39:28;;;;;;;7.47;6.77;;;;;;;;;;5009595;28;20214;-77
2022/08/30 03:41:53;;;;;;;9.30;8.33;;;;;;;;;;5018945;28;20197;-77
2022/08/30 03:44:19;;;;;;;8.50;6.80;;;;;;;;;;5042609;28;20172;-77
2022/08/30 03:46:44;;;;;;;10.23;6.63;;;;;;;;;;5029140;28;20218;-77
2022/08/30 03:49:10;;;;;;;8.73;6.60;;;;;;;;;;5029130;28;20185;-77
2022/08/30 03:51:35;;;;;;;8.00;7.20;;;;;;;;;;5022260;28;20191;-77
2022/08/30 03:54:01;;;;;;;7.93;7.30;;;;;;;;;;5019476;28;20178;-76
2022/08/30 03:56:27;;;;;;;7.63;6.93;;;;;;;;;;5021405;28;20180;-77
2022/08/30 03:58:52;;;;;;;10.87;6.53;;;;;;;;;;5012668;28;20490;-77
2022/08/30 04:01:17;;;;;;;7.57;6.73;;;;;;;;;;5013174;28;20174;-77
2022/08/30 04:03:42;;;;;;;8.43;7.63;;;;;;;;;;5012793;28;20201;-77
2022/08/30 04:06:08;;;;;;;11.20;7.97;;;;;;;;;;5012349;28;20561;-77
2022/08/30 04:08:33;;;;;;;9.97;7.40;;;;;;;;;;5012771;28;20183;-77
2022/08/30 04:10:59;;;;;;;8.70;7.93;;;;;;;;;;5020408;28;20188;-78
2022/08/30 04:13:25;;;;;;;8.17;7.17;;;;;;;;;;5039684;28;20167;-78
2022/08/30 04:15:50;;;;;;;7.20;6.37;;;;;;;;;;5032427;28;20184;-78
2022/08/30 04:18:18;;;;;;;7.40;6.70;;;;;;;;;;5032025;28;20195;-78
2022/08/30 04:20:43;;;;;;;8.87;7.83;;;;;;;;;;5032000;28;20178;-78
2022/08/30 04:23:09;;;;;;;8.10;7.30;;;;;;;;;;5031979;28;20177;-78
2022/08/30 04:25:35;;;;;;;10.20;7.47;;;;;;;;;;5025796;28;20230;-78
2022/08/30 04:28:01;;;;;;;11.13;6.80;;;;;;;;;;5012151;28;20175;-78
2022/08/30 04:30:27;;;;;;;9.43;6.83;;;;;;;;;;5012364;28;20183;-78
2022/08/30 04:32:52;;;;;;;10.27;8.57;;;;;;;;;;5017267;28;20181;-78
2022/08/30 04:35:17;;;;;;;8.87;7.73;;;;;;;;;;5022673;28;20223;-78
2022/08/30 04:37:42;;;;;;;11.20;7.80;;;;;;;;;;5012165;28;20197;-78
2022/08/30 04:40:08;;;;;;;12.00;7.83;;;;;;;;;;5012089;28;20175;-78
2022/08/30 04:42:34;;;;;;;8.50;7.70;;;;;;;;;;5028733;28;20180;-78
2022/08/30 04:45:04;;;;;;;8.97;8.17;;;;;;;;;;5031579;28;20163;-78
2022/08/30 04:47:30;;;;;;;8.13;7.43;;;;;;;;;;5031118;28;20173;-78
2022/08/30 04:49:55;;;;;;;8.33;7.43;;;;;;;;;;5034873;28;20182;-78
2022/08/30 04:52:20;;;;;;;8.43;6.83;;;;;;;;;;5031233;28;20262;-78
2022/08/30 04:54:45;;;;;;;8.83;7.63;;;;;;;;;;5017611;28;20183;-78
2022/08/30 04:57:11;;;;;;;10.67;7.33;;;;;;;;;;5028594;28;20199;-78
2022/08/30 04:59:37;;;;;;;8.53;7.57;;;;;;;;;;5024390;28;20185;-78
2022/08/30 05:02:02;;;;;;;7.70;6.97;;;;;;;;;;5012459;28;20171;-78
2022/08/30 05:04:27;;;;;;;7.63;6.83;;;;;;;;;;5012466;28;20167;-78
2022/08/30 05:06:53;;;;;;;9.03;7.77;;;;;;;;;;5027051;28;20176;-78
2022/08/30 05:09:20;;;;;;;8.57;7.07;;;;;;;;;;5027851;28;20199;-78
2022/08/30 05:11:45;;;;;;;8.07;7.03;;;;;;;;;;5011495;28;20405;-77
2022/08/30 05:14:11;;;;;;;8.53;7.67;;;;;;;;;;5027889;28;20171;-78
2022/08/30 05:16:36;;;;;;;7.45;6.75;;;;;;;;;;5034489;28;20180;-78
2022/08/30 05:19:01;;;;;;;7.57;6.73;;;;;;;;;;5030669;28;20176;-78
2022/08/30 05:21:27;;;;;;;8.87;7.13;;;;;;;;;;5047701;28;20179;-78
2022/08/30 05:23:53;;;;;;;8.90;7.37;;;;;;;;;;5032041;28;20202;-78
2022/08/30 05:26:19;;;;;;;8.97;7.93;;;;;;;;;;5034384;28;20175;-78
2022/08/30 05:28:45;;;;;;;9.47;8.03;;;;;;;;;;5033919;28;20389;-78
2022/08/30 05:31:18;;;;;;;8.97;8.07;;;;;;;;;;5034121;28;20185;-78
2022/08/30 05:33:44;;;;;;;8.30;7.57;;;;;;;;;;5042330;28;20226;-78
2022/08/30 05:36:10;;;;;;;8.37;7.57;;;;;;;;;;5034026;28;20212;-78
2022/08/30 05:38:35;;;;;;;10.20;6.93;;;;;;;;;;5033467;28;20233;-78
2022/08/30 05:41:01;;;;;;;9.20;7.23;;;;;;;;;;5051527;28;20168;-78
2022/08/30 05:43:26;;;;;;;8.17;7.43;;;;;;;;;;5049725;28;20226;-78
2022/08/30 05:46:01;;;;;;;7.73;7.00;;;;;;;;;;5051181;28;20222;-78
2022/08/30 05:48:27;;;;;;;8.13;6.53;;;;;;;;;;5033721;28;20262;-78
2022/08/30 05:51:06;;;;;;;11.90;8.03;;;;;;;;;;5042730;28;20180;-78
2022/08/30 05:53:31;;;;;;;8.70;6.93;;;;;;;;;;5020346;28;20175;-78
2022/08/30 05:55:57;;;;;;;11.03;7.77;;;;;;;;;;5025372;28;20177;-78
2022/08/30 05:58:22;;;;;;;8.40;7.13;;;;;;;;;;5051048;28;20218;-78
2022/08/30 06:00:47;;;;;;;8.23;7.43;;;;;;;;;;5051283;28;20191;-78
2022/08/30 06:03:12;;;;;;;8.30;7.40;;;;;;;;;;5051484;28;20479;-78
2022/08/30 06:05:38;;;;;;;8.23;7.50;;;;;;;;;;5051209;28;20193;-78
2022/08/30 06:08:03;;;;;;;8.37;7.40;;;;;;;;;;5040317;28;20184;-78
2022/08/30 06:10:28;;;;;;;8.13;7.33;;;;;;;;;;5017090;28;20192;-78
2022/08/30 06:12:54;;;;;;;12.30;7.33;;;;;;;;;;5036251;28;20176;-78
2022/08/30 06:15:19;;;;;;;8.47;7.10;;;;;;;;;;5032890;28;20292;-78
2022/08/30 06:17:44;;;;;;;10.43;7.80;;;;;;;;;;5032543;28;20218;-78
2022/08/30 06:20:10;;;;;;;9.27;7.17;;;;;;;;;;5033029;28;20211;-78
2022/08/30 06:22:35;;;;;;;8.03;7.20;;;;;;;;;;5050882;28;20171;-78
2022/08/30 06:25:00;;;;;;;8.83;6.90;;;;;;;;;;5035869;28;20243;-78
2022/08/30 06:27:26;;;;;;;8.43;7.07;;;;;;;;;;5010823;28;20179;-77
2022/08/30 06:29:52;;;;;;;7.37;6.67;;;;;;;;;;5010998;28;20198;-78
2022/08/30 06:32:17;;;;;;;7.23;6.53;;;;;;;;;;5011410;28;20257;-78
2022/08/30 06:34:42;;;;;;;9.27;8.07;;;;;;;;;;5029286;28;20236;-78
2022/08/30 06:37:07;;;;;;;8.23;7.37;;;;;;;;;;5013484;28;20197;-78
2022/08/30 06:39:33;;;;;;;9.00;7.80;;;;;;;;;;5011046;28;20182;-78
2022/08/30 06:41:58;;;;;;;8.20;7.40;;;;;;;;;;5024953;28;20184;-78
2022/08/30 06:44:23;;;;;;;6.30;5.70;;;;;;;;;;5030319;28;20193;-78
2022/08/30 06:46:49;;;;;;;7.07;6.47;;;;;;;;;;5029440;28;20197;-78
2022/08/30 06:49:14;;;;;;;6.90;6.30;;;;;;;;;;5028109;28;20210;-78
2022/08/30 06:51:39;;;;;;;7.33;6.60;;;;;;;;;;5010431;28;20168;-78
2022/08/30 06:54:05;;;;;;;7.60;6.57;;;;;;;;;;5021391;28;20186;-78
2022/08/30 06:56:31;;;;;;;7.80;7.00;;;;;;;;;;5029348;28;20316;-78
2022/08/30 06:58:56;;;;;;;7.07;6.37;;;;;;;;;;5019747;28;20215;-78
2022/08/30 07:01:23;;;;;;;7.03;6.43;;;;;;;;;;5009950;28;20235;-78
2022/08/30 07:03:48;;;;;;;8.47;6.77;;;;;;;;;;5010534;28;20179;-78
2022/08/30 07:06:14;;;;;;;8.63;7.57;;;;;;;;;;5010731;28;20161;-77
2022/08/30 07:08:39;;;;;;;11.13;7.30;;;;;;;;;;5009161;28;20190;-78
2022/08/30 07:11:06;;;;;;;6.70;6.10;;;;;;;;;;5009672;28;20187;-77
2022/08/30 07:13:32;;;;;;;6.93;6.27;;;;;;;;;;5010620;28;20166;-78
2022/08/30 07:15:57;;;;;;;7.13;6.53;;;;;;;;;;5019169;28;20182;-78
2022/08/30 07:21:08;;;;;;;7.27;6.67;;;;;;;;;;5010469;28;20191;-77
2022/08/30 07:23:34;;;;;;;7.87;7.17;;;;;;;;;;5010579;28;20440;-77
2022/08/30 07:26:02;;;;;;;8.63;7.03;;;;;;;;;;5027230;28;20230;-77
2022/08/30 07:28:27;;;;;;;7.77;7.07;;;;;;;;;;5029010;28;20176;-78
2022/08/30 07:30:52;;;;;;;7.60;6.90;;;;;;;;;;5014573;28;20192;-78
2022/08/30 07:33:17;;;;;;;7.30;6.60;;;;;;;;;;5033946;28;20186;-77
2022/08/30 07:35:43;;;;;;;7.80;7.10;;;;;;;;;;5053976;28;20167;-77
2022/08/30 07:38:11;;;;;;;7.73;7.13;;;;;;;;;;5053612;28;20279;-78
2022/08/30 07:40:37;;;;;;;7.37;6.67;;;;;;;;;;5035709;28;20199;-78
2022/08/30 07:43:02;;;;;;;7.87;6.57;;;;;;;;;;5053813;28;20194;-77
2022/08/30 07:45:27;;;;;;;7.47;6.77;;;;;;;;;;5053875;28;20175;-77
2022/08/30 07:47:52;;;;;;;8.70;7.10;;;;;;;;;;5052407;28;20176;-77
2022/08/30 07:50:18;;;;;;;8.17;7.37;;;;;;;;;;5035117;28;20245;-77
2022/08/30 07:52:43;;;;;;;7.77;7.07;;;;;;;;;;5035824;28;20282;-78
2022/08/30 07:55:08;;;;;;;7.83;7.03;;;;;;;;;;5053529;28;20168;-78
2022/08/30 07:57:34;;;;;;;8.73;6.80;;;;;;;;;;5035636;28;20235;-77
2022/08/30 07:59:59;;;;;;;7.23;6.53;;;;;;;;;;5053854;28;20196;-78
2022/08/30 08:02:25;;;;;;;6.87;6.23;;;;;;;;;;5035734;28;20173;-78
2022/08/30 08:04:50;;;;;;;8.07;6.63;;;;;;;;;;5035720;28;20177;-78
2022/08/30 08:07:15;;;;;;;7.20;6.60;;;;;;;;;;5023235;28;20200;-77
2022/08/30 08:09:40;;;;;;;6.87;6.27;;;;;;;;;;5016160;28;20209;-77
2022/08/30 08:12:06;;;;;;;7.30;6.57;;;;;;;;;;5042012;28;20183;-78
2022/08/30 08:14:32;;;;;;;6.53;6.00;;;;;;;;;;5016131;28;20182;-77
2022/08/30 08:16:58;;;;;;;6.67;6.07;;;;;;;;;;5033387;28;20195;-77
2022/08/30 08:19:23;;;;;;;7.87;6.53;;;;;;;;;;5022108;28;20268;-77
2022/08/30 08:21:49;;;;;;;7.20;6.60;;;;;;;;;;5052946;28;20224;-77
2022/08/30 08:24:15;;;;;;;7.27;6.53;;;;;;;;;;5022888;28;20187;-77
2022/08/30 08:26:41;;;;;;;6.80;6.10;;;;;;;;;;5031985;28;20222;-77
2022/08/30 08:29:07;;;;;;;8.20;6.83;;;;;;;;;;5033197;28;20171;-77
2022/08/30 08:31:32;;;;;;;10.13;6.37;;;;;;;;;;5015553;28;20182;-77
2022/08/30 08:33:58;;;;;;;7.07;6.07;;;;;;;;;;5028936;28;20195;-78
2022/08/30 08:36:24;;;;;;;7.30;6.50;;;;;;;;;;5027001;28;20241;-77
2022/08/30 08:38:49;;;;;;;7.33;6.67;;;;;;;;;;5041691;28;20250;-77
2022/08/30 08:41:33;;;;;;;7.23;6.60;;;;;;;;;;5033344;28;20179;-78
2022/08/30 08:43:59;;;;;;;6.83;6.23;;;;;;;;;;5034381;28;20178;-77
2022/08/30 08:46:30;;;;;;;7.30;6.60;;;;;;;;;;5034566;28;20256;-77
2022/08/30 08:48:57;;;;;;;7.57;6.87;;;;;;;;;;5028177;28;20174;-77
2022/08/30 08:54:14;;;;;;;8.63;6.83;;;;;;;;;;5052497;28;20225;-78
2022/08/30 08:56:40;;;;;;;7.33;6.67;;;;;;;;;;5052443;28;20261;-77
2022/08/30 08:59:07;;;;;;;7.90;7.10;;;;;;;;;;5015834;28;20244;-77
2022/08/30 09:01:32;;;;;;;7.77;6.67;;;;;;;;;;5015064;28;20471;-77
2022/08/30 09:04:00;;;;;;;6.43;5.80;;;;;;;;;;5014931;28;20180;-78
2022/08/30 09:06:37;;;;;;;7.40;6.67;;;;;;;;;;5014732;28;20260;-77
2022/08/30 09:09:02;;;;;;;7.30;6.70;;;;;;;;;;5031126;28;20177;-77
2022/08/30 09:11:31;;;;;;;6.23;5.70;;;;;;;;;;5014469;28;20181;-78
2022/08/30 09:13:56;;;;;;;14.00;12.80;;;;;;;;;;5015271;28;20370;-77
2022/08/30 09:16:40;;;;;;;8.63;6.33;;;;;;;;;;5032248;28;20171;-77
2022/08/30 09:19:05;;;;;;;6.97;6.30;;;;;;;;;;5018357;28;20216;-77
2022/08/30 09:21:30;;;;;;;7.07;6.47;;;;;;;;;;5034196;28;20216;-78
2022/08/30 09:23:58;;;;;;;7.47;6.45;;;;;;;;;;5051422;28;20435;-78
2022/08/30 09:26:34;;;;;;;7.90;6.17;;;;;;;;;;5029887;28;20207;-77
2022/08/30 09:28:59;;;;;;;7.32;6.60;;;;;;;;;;5031365;28;20239;-78
2022/08/30 09:31:26;;;;;;;9.47;6.60;;;;;;;;;;5024311;28;20218;-78
2022/08/30 09:34:04;;;;;;;6.47;5.60;;;;;;;;;;5029177;28;20205;-78
2022/08/30 09:36:32;;;;;;;6.60;6.00;;;;;;;;;;5009752;28;20171;-77
2022/08/30 09:38:59;;;;;;;6.82;6.05;;;;;;;;;;5011242;28;20207;-77
2022/08/30 09:41:26;;;;;;;5.78;5.20;;;;;;;;;;5026966;28;20175;-78
2022/08/30 09:44:03;;;;;;;6.00;5.50;;;;;;;;;;5035511;28;20178;-77
2022/08/30 09:46:29;;;;;;;6.65;6.03;;;;;;;;;;5029615;28;20171;-77
2022/08/30 09:48:54;;;;;;;6.07;5.57;;;;;;;;;;5021108;28;20183;-77
2022/08/30 09:51:19;;;;;;;6.28;5.68;;;;;;;;;;5010012;28;20186;-77
2022/08/30 09:54:06;;;;;;;5.95;5.38;;;;;;;;;;5009330;28;20195;-77
2022/08/30 09:56:37;;;;;;;6.13;5.63;;;;;;;;;;5010909;28;20171;-77
2022/08/30 09:59:21;;;;;;;6.78;5.47;;;;;;;;;;5009572;28;20227;-77
2022/08/30 10:01:49;;;;;;;7.38;5.20;;;;;;;;;;5009639;28;20170;-78
2022/08/30 10:04:22;;;;;;;6.20;5.35;;;;;;;;;;5010817;28;20154;-77
2022/08/30 10:06:50;;;;;;;8.32;5.88;;;;;;;;;;5011213;28;20213;-78
2022/08/30 10:09:35;;;;;;;5.60;5.13;;;;;;;;;;5009757;28;20168;-77
2022/08/30 10:12:07;;;;;;;6.50;5.53;;;;;;;;;;5017602;28;20186;-78
2022/08/30 10:15:01;;;;;;;5.45;4.95;;;;;;;;;;5029481;28;20270;-77
2022/08/30 10:17:37;;;;;;;5.50;4.63;;;;;;;;;;4943328;28;20213;-77
2022/08/30 10:20:06;;;;;;;6.22;5.25;;;;;;;;;;5017290;28;20179;-78
2022/08/30 10:22:37;;;;;;;5.07;4.68;;;;;;;;;;5009950;28;20175;-78
2022/08/30 10:25:14;;;;;;;6.25;4.68;;;;;;;;;;4981452;28;1090827;-77
2022/08/30 10:27:43;;;;;;;5.68;5.20;;;;;;;;;;5013373;28;20187;-77
2022/08/30 10:30:10;;;;;;;5.53;4.70;;;;;;;;;;5031296;28;20155;-77
2022/08/30 10:32:36;;;;;;;5.82;5.20;;;;;;;;;;5033729;28;20171;-77
2022/08/30 10:35:07;;;;;;;6.18;5.68;;;;;;;;;;5023016;28;20205;-77
2022/08/30 10:37:35;;;;;;;5.53;5.03;;;;;;;;;;5042798;28;20251;-77
2022/08/30 10:41:11;;;;;;;6.88;4.93;;;;;;;;;;5023160;28;20181;-77
2022/08/30 10:42:49;;;;;;;6.10;5.18;;;;;;;;;;5036310;28;20261;-77
2022/08/30 10:45:15;;;;;;;7.47;5.10;;;;;;;;;;5032916;28;20178;-77
2022/08/30 10:47:48;;;;;;;5.47;4.97;;;;;;;;;;5034125;28;20268;-78
2022/08/30 10:50:31;;;;;;;5.40;4.90;;;;;;;;;;5032865;28;20253;-77
2022/08/30 10:52:56;;;;;;;5.53;5.03;;;;;;;;;;5050387;28;20182;-78
2022/08/30 10:55:24;;;;;;;5.25;4.85;;;;;;;;;;5050534;28;20178;-78
2022/08/30 10:57:50;;;;;;;8.18;5.65;;;;;;;;;;5033819;28;20226;-78
2022/08/30 11:00:22;;;;;;;5.03;4.47;;;;;;;;;;5030760;28;20198;-77
2022/08/30 11:02:47;;;;;;;5.20;4.68;;;;;;;;;;5013043;28;20175;-78
2022/08/30 11:05:22;;;;;;;5.68;5.13;;;;;;;;;;5014251;28;20179;-78
2022/08/30 11:07:47;;;;;;;5.18;4.78;;;;;;;;;;5034734;28;20202;-77
2022/08/30 11:10:30;;;;;;;5.70;4.57;;;;;;;;;;5034436;28;20178;-77
2022/08/30 11:13:09;;;;;;;5.68;5.15;;;;;;;;;;5036002;28;20269;-77
2022/08/30 11:15:36;;;;;;;5.95;5.22;;;;;;;;;;5054953;28;20193;-77
2022/08/30 11:18:03;;;;;;;6.07;5.20;;;;;;;;;;5054402;28;20187;-78
2022/08/30 11:20:29;;;;;;;6.63;5.30;;;;;;;;;;5036384;28;20174;-78
2022/08/30 11:23:24;;;;;;;5.83;5.33;;;;;;;;;;5036645;28;20174;-78
2022/08/30 11:25:51;;;;;;;6.95;5.38;;;;;;;;;;5006663;28;20490;-78
2022/08/30 11:28:34;;;;;;;6.20;5.30;;;;;;;;;;5033099;28;20175;-77
2022/08/30 11:31:03;;;;;;;5.93;5.45;;;;;;;;;;5032663;28;20229;-78
2022/08/30 11:33:30;;;;;;;5.25;4.57;;;;;;;;;;5032898;28;20205;-77
2022/08/30 11:35:55;;;;;;;6.65;5.38;;;;;;;;;;5018255;28;20179;-77
2022/08/30 11:38:23;;;;;;;5.38;4.97;;;;;;;;;;5014129;28;20195;-78
2022/08/30 11:40:52;;;;;;;5.60;5.10;;;;;;;;;;5019149;28;20167;-77
2022/08/30 11:43:32;;;;;;;6.05;5.18;;;;;;;;;;5032361;28;20262;-78
2022/08/30 11:46:16;;;;;;;7.55;5.30;;;;;;;;;;5034062;28;20246;-78
2022/08/30 11:49:04;;;;;;;5.82;4.65;;;;;;;;;;5016852;28;20198;-77
2022/08/30 11:51:35;;;;;;;5.85;5.35;;;;;;;;;;5014089;28;20164;-77
2022/08/30 11:54:21;;;;;;;5.07;4.57;;;;;;;;;;5014033;28;20156;-78
2022/08/30 11:56:46;;;;;;;5.28;4.78;;;;;;;;;;5000116;28;20190;-78
2022/08/30 11:59:29;;;;;;;7.53;5.40;;;;;;;;;;5012832;28;20199;-77
2022/08/30 12:01:54;;;;;;;6.95;5.30;;;;;;;;;;5012884;28;20167;-77
2022/08/30 12:04:19;;;;;;;6.50;5.45;;;;;;;;;;5014498;28;20168;-78
2022/08/30 12:07:02;;;;;;;5.30;4.90;;;;;;;;;;5012890;28;20167;-78
2022/08/30 12:09:28;;;;;;;6.75;5.32;;;;;;;;;;5012946;28;20175;-78
2022/08/30 12:12:01;;;;;;;6.82;4.97;;;;;;;;;;5022785;28;20263;-77
2022/08/30 12:14:35;;;;;;;5.68;5.18;;;;;;;;;;5033029;28;20246;-78
2022/08/30 12:19:46;;;;;;;6.78;5.22;;;;;;;;;;5024372;28;20259;-77
2022/08/30 12:22:15;;;;;;;6.10;4.90;;;;;;;;;;5023390;28;20175;-78
2022/08/30 12:24:42;;;;;;;5.80;5.18;;;;;;;;;;5038087;28;20233;-78
2022/08/30 12:27:26;;;;;;;6.05;5.43;;;;;;;;;;5035142;28;20178;-77
2022/08/30 12:29:52;;;;;;;5.40;5.00;;;;;;;;;;5035366;28;20256;-78
2022/08/30 12:32:19;;;;;;;6.10;4.82;;;;;;;;;;5035346;28;20170;-78
2022/08/30 12:34:44;;;;;;;6.32;4.82;;;;;;;;;;5035303;28;20190;-77
2022/08/30 12:37:20;;;;;;;6.25;4.88;;;;;;;;;;5035045;28;20177;-77
2022/08/30 12:39:45;;;;;;;5.60;5.20;;;;;;;;;;5034322;28;20181;-78
2022/08/30 12:42:22;;;;;;;5.50;4.90;;;;;;;;;;5018050;28;20179;-78
2022/08/30 12:44:51;;;;;;;5.32;4.85;;;;;;;;;;5015489;28;20375;-77
2022/08/30 12:47:18;;;;;;;7.28;5.10;;;;;;;;;;5040916;28;20166;-77
2022/08/30 12:49:45;;;;;;;6.65;5.15;;;;;;;;;;5032944;28;20337;-78
2022/08/30 12:52:25;;;;;;;5.13;4.72;;;;;;;;;;5014876;28;20174;-77
2022/08/30 12:54:52;;;;;;;5.45;4.95;;;;;;;;;;5015628;28;20182;-78
2022/08/30 12:57:34;;;;;;;5.78;4.78;;;;;;;;;;5035002;28;20317;-78
2022/08/30 13:00:00;;;;;;;5.57;5.10;;;;;;;;;;5034797;28;20188;-78
2022/08/30 13:02:26;;;;;;;5.57;5.18;;;;;;;;;;5052319;28;20245;-78
2022/08/30 13:04:52;;;;;;;5.80;4.65;;;;;;;;;;5034742;28;20257;-78
2022/08/30 13:07:26;;;;;;;6.03;5.18;;;;;;;;;;5034543;28;20243;-77
2022/08/30 13:09:58;;;;;;;5.55;5.07;;;;;;;;;;5052279;28;20198;-78
2022/08/30 13:12:25;;;;;;;5.97;5.38;;;;;;;;;;5035977;28;20178;-78
2022/08/30 13:14:52;;;;;;;5.35;4.80;;;;;;;;;;5050920;28;20314;-78
2022/08/30 13:17:17;;;;;;;6.03;4.78;;;;;;;;;;5033876;28;20202;-78
2022/08/30 13:19:43;;;;;;;5.37;4.97;;;;;;;;;;5052438;28;20249;-78
2022/08/30 13:22:27;;;;;;;5.82;5.32;;;;;;;;;;5034344;28;20465;-77
2022/08/30 13:24:53;;;;;;;6.82;5.30;;;;;;;;;;5030856;28;20222;-78
2022/08/30 13:27:19;;;;;;;7.15;5.43;;;;;;;;;;5030838;28;20179;-77
2022/08/30 13:29:44;;;;;;;6.18;5.60;;;;;;;;;;5022266;28;20191;-78
2022/08/30 13:32:09;;;;;;;5.45;5.05;;;;;;;;;;5016461;28;20182;-77
2022/08/30 13:34:35;;;;;;;6.03;5.53;;;;;;;;;;5027657;28;20199;-77
2022/08/30 13:37:01;;;;;;;5.15;4.70;;;;;;;;;;5026386;28;20175;-78
2022/08/30 13:39:26;;;;;;;5.40;4.95;;;;;;;;;;5030904;28;20175;-77
2022/08/30 13:41:52;;;;;;;6.32;5.45;;;;;;;;;;5023467;28;20174;-78
2022/08/30 13:44:17;;;;;;;5.72;5.22;;;;;;;;;;5045194;28;20232;-77
2022/08/30 13:46:44;;;;;;;5.35;4.85;;;;;;;;;;5023742;28;20190;-77
2022/08/30 13:49:38;;;;;;;5.82;5.22;;;;;;;;;;5011950;28;20179;-78
2022/08/30 13:52:04;;;;;;;6.72;5.80;;;;;;;;;;5009155;28;20326;-77
2022/08/30 13:54:29;;;;;;;5.60;5.10;;;;;;;;;;5010928;28;20234;-77
2022/08/30 13:56:55;;;;;;;5.70;4.95;;;;;;;;;;5011297;28;20186;-77
2022/08/30 13:59:20;;;;;;;5.40;4.80;;;;;;;;;;5010494;28;20290;-77
2022/08/30 14:01:46;;;;;;;5.57;5.18;;;;;;;;;;5010479;28;20175;-77
2022/08/30 14:04:11;;;;;;;5.35;4.95;;;;;;;;;;5012391;28;20182;-77
2022/08/30 14:06:37;;;;;;;6.53;5.85;;;;;;;;;;5011774;28;20187;-77
2022/08/30 14:09:05;;;;;;;6.50;5.10;;;;;;;;;;5010902;28;20172;-77
2022/08/30 14:11:30;;;;;;;6.25;5.68;;;;;;;;;;5014954;28;20175;-78
2022/08/30 14:13:55;;;;;;;5.78;5.10;;;;;;;;;;5030193;28;20200;-77
2022/08/30 14:16:20;;;;;;;6.80;4.90;;;;;;;;;;5030364;28;20179;-77
2022/08/30 14:18:46;;;;;;;5.80;4.90;;;;;;;;;;5028888;28;20206;-77
2022/08/30 14:21:11;;;;;;;5.43;4.78;;;;;;;;;;5013166;28;20451;-77
2022/08/30 14:23:36;;;;;;;5.07;4.55;;;;;;;;;;5029731;28;20210;-78
2022/08/30 14:26:04;;;;;;;10.45;5.40;;;;;;;;;;5046782;28;20214;-78
2022/08/30 14:28:29;;;;;;;5.90;5.13;;;;;;;;;;5033389;28;20255;-77
2022/08/30 14:30:54;;;;;;;6.18;5.65;;;;;;;;;;5033400;28;20233;-78
2022/08/30 14:33:20;;;;;;;5.85;5.25;;;;;;;;;;5050644;28;20196;-78
2022/08/30 14:35:45;;;;;;;5.28;4.85;;;;;;;;;;5033528;28;20253;-78
2022/08/30 14:38:10;;;;;;;5.93;5.50;;;;;;;;;;5031985;28;20344;-77
2022/08/30 14:40:35;;;;;;;6.38;5.78;;;;;;;;;;5029471;28;20180;-78
2022/08/30 14:43:01;;;;;;;5.63;5.22;;;;;;;;;;5037759;28;20198;-77
2022/08/30 14:45:26;;;;;;;6.50;5.20;;;;;;;;;;5030650;28;20166;-78
2022/08/30 14:47:51;;;;;;;6.22;5.68;;;;;;;;;;5045056;28;20166;-78
2022/08/30 14:50:16;;;;;;;6.40;5.80;;;;;;;;;;5050831;28;20170;-77
2022/08/30 14:52:42;;;;;;;5.15;4.75;;;;;;;;;;5049281;28;20174;-77
2022/08/30 14:55:08;;;;;;;5.20;4.80;;;;;;;;;;5021515;28;20202;-78